createdAt,value
2022-09-12T00:01:20.092Z,3.50
2022-09-12T00:03:47.096Z,3.75
2022-09-12T00:06:22.390Z,4.38
2022-09-12T00:08:49.808Z,3.63
2022-09-12T00:11:16.319Z,3.40
2022-09-12T00:13:43.133Z,3.42
2022-09-12T00:16:23.427Z,3.55
2022-09-12T00:18:50.954Z,4.03
2022-09-12T00:21:18.196Z,3.90
2022-09-12T00:23:45.307Z,3.63
2022-09-12T00:26:12.815Z,3.20
2022-09-12T00:28:41.090Z,4.00
2022-09-12T00:31:10.821Z,3.75
2022-09-12T00:33:39.432Z,3.00
2022-09-12T00:36:08.442Z,3.65
2022-09-12T00:38:35.112Z,3.67
2022-09-12T00:41:01.666Z,3.90
2022-09-12T00:43:36.971Z,3.80
2022-09-12T00:46:08.388Z,3.60
2022-09-12T00:48:41.722Z,3.70
2022-09-12T00:51:08.976Z,3.60
2022-09-12T00:53:35.601Z,3.70
2022-09-12T00:56:02.669Z,3.85
2022-09-12T00:58:31.588Z,3.47
2022-09-12T01:00:58.949Z,3.83
2022-09-12T01:03:26.623Z,3.78
2022-09-12T01:06:05.895Z,3.92
2022-09-12T01:08:34.248Z,4.18
2022-09-12T01:11:01.595Z,3.90
2022-09-12T01:13:28.689Z,4.10
2022-09-12T01:15:55.632Z,3.92
2022-09-12T01:18:30.006Z,3.70
2022-09-12T01:21:11.142Z,3.70
2022-09-12T01:24:19.605Z,4.03
2022-09-12T01:27:14.500Z,4.22
2022-09-12T01:30:03.999Z,4.00
2022-09-12T01:32:48.862Z,3.40
2022-09-12T01:35:23.812Z,4.05
2022-09-12T01:38:02.084Z,3.90
2022-09-12T01:40:36.310Z,4.60
2022-09-12T01:43:11.997Z,4.10
2022-09-12T01:45:43.910Z,4.50
2022-09-12T01:48:16.439Z,3.63
2022-09-12T01:50:50.203Z,4.57
2022-09-12T01:53:22.099Z,5.30
2022-09-12T01:58:22.104Z,4.50
2022-09-12T02:00:54.231Z,4.50
2022-09-12T02:03:27.337Z,3.97
2022-09-12T02:05:59.830Z,3.97
2022-09-12T02:08:31.319Z,4.18
2022-09-12T02:11:02.118Z,3.80
2022-09-12T02:13:35.350Z,3.97
2022-09-12T02:16:07.800Z,3.90
2022-09-12T02:18:38.602Z,3.97
2022-09-12T02:21:06.429Z,4.35
2022-09-12T02:23:36.698Z,3.72
2022-09-12T02:26:10.735Z,4.43
2022-09-12T02:28:41.857Z,4.60
2022-09-12T02:31:18.354Z,3.90
2022-09-12T02:33:52.504Z,4.03
2022-09-12T02:36:31.615Z,4.15
2022-09-12T02:38:58.352Z,4.03
2022-09-12T02:41:25.004Z,4.28
2022-09-12T02:43:53.485Z,4.05
2022-09-12T02:46:23.510Z,4.22
2022-09-12T02:48:51.489Z,3.97
2022-09-12T02:51:22.916Z,4.03
2022-09-12T02:53:50.572Z,4.30
2022-09-12T02:56:22.716Z,4.20
2022-09-12T02:58:49.729Z,4.20
2022-09-12T03:01:28.988Z,4.28
2022-09-12T03:04:19.251Z,4.20
2022-09-12T03:06:53.679Z,4.07
2022-09-12T03:09:33.477Z,3.97
2022-09-12T03:12:10.129Z,4.10
2022-09-12T03:14:56.144Z,4.25
2022-09-12T03:17:32.709Z,4.07
2022-09-12T03:20:06.407Z,4.05
2022-09-12T03:22:42.903Z,4.10
2022-09-12T03:25:16.147Z,3.70
2022-09-12T03:27:48.905Z,4.35
2022-09-12T03:30:15.572Z,4.10
2022-09-12T03:32:47.469Z,4.50
2022-09-12T03:37:48.851Z,4.53
2022-09-12T03:40:15.552Z,3.95
2022-09-12T03:42:42.527Z,3.47
2022-09-12T03:45:10.363Z,3.65
2022-09-12T03:47:36.898Z,3.75
2022-09-12T03:50:04.375Z,4.25
2022-09-12T03:52:32.247Z,3.88
2022-09-12T03:54:58.821Z,3.70
2022-09-12T03:57:25.335Z,4.60
2022-09-12T03:59:51.849Z,4.78
2022-09-12T04:02:18.410Z,5.10
2022-09-12T04:04:45.561Z,5.00
2022-09-12T04:07:12.093Z,5.75
2022-09-12T04:09:39.943Z,5.80
2022-09-12T04:12:07.181Z,6.38
2022-09-12T04:14:34.276Z,6.18
2022-09-12T04:17:00.810Z,6.40
2022-09-12T04:19:27.634Z,6.68
2022-09-12T04:21:54.173Z,6.68
2022-09-12T04:24:20.700Z,6.53
2022-09-12T04:26:48.635Z,6.10
2022-09-12T04:29:15.163Z,6.10
2022-09-12T04:31:41.984Z,6.30
2022-09-12T04:34:08.616Z,6.53
2022-09-12T04:36:35.526Z,7.53
2022-09-12T04:39:03.797Z,7.40
2022-09-12T04:41:32.536Z,7.40
2022-09-12T04:44:02.833Z,6.25
2022-09-12T04:46:31.751Z,6.57
2022-09-12T04:48:58.323Z,6.65
2022-09-12T04:51:28.318Z,6.43
2022-09-12T04:53:57.408Z,5.32
2022-09-12T04:56:24.687Z,5.85
2022-09-12T04:58:51.208Z,5.78
2022-09-12T05:01:20.885Z,4.82
2022-09-12T05:03:48.713Z,4.88
2022-09-12T05:06:17.034Z,4.90
2022-09-12T05:08:43.836Z,4.80
2022-09-12T05:11:12.813Z,4.60
2022-09-12T05:13:39.681Z,4.20
2022-09-12T05:16:08.077Z,4.68
2022-09-12T05:18:37.017Z,4.38
2022-09-12T05:21:05.926Z,4.15
2022-09-12T05:23:32.506Z,4.60
2022-09-12T05:25:59.769Z,4.47
2022-09-12T05:28:30.576Z,4.38
2022-09-12T05:31:01.088Z,4.15
2022-09-12T05:33:27.785Z,4.20
2022-09-12T05:35:55.816Z,4.28
2022-09-12T05:38:22.480Z,4.28
2022-09-12T05:40:49.032Z,3.60
2022-09-12T05:43:15.542Z,3.65
2022-09-12T05:45:42.125Z,3.83
2022-09-12T05:48:08.783Z,3.95
2022-09-12T05:50:35.528Z,4.03
2022-09-12T05:53:03.380Z,3.85
2022-09-12T05:55:29.912Z,3.58
2022-09-12T05:57:56.458Z,3.95
2022-09-12T06:00:22.972Z,3.80
2022-09-12T06:02:52.351Z,4.88
2022-09-12T06:05:19.173Z,3.88
2022-09-12T06:07:46.050Z,3.72
2022-09-12T06:10:14.127Z,4.05
2022-09-12T06:12:40.647Z,4.00
2022-09-12T06:15:08.143Z,4.18
2022-09-12T06:17:34.672Z,3.35
2022-09-12T06:20:01.386Z,3.85
2022-09-12T06:22:27.892Z,3.95
2022-09-12T06:24:57.859Z,3.60
2022-09-12T06:27:25.995Z,3.85
2022-09-12T06:29:52.516Z,4.32
2022-09-12T06:32:19.030Z,3.70
2022-09-12T06:34:45.541Z,4.20
2022-09-12T06:37:12.080Z,4.53
2022-09-12T06:39:38.675Z,4.78
2022-09-12T06:42:05.635Z,5.30
2022-09-12T06:44:33.578Z,4.07
2022-09-12T06:47:00.135Z,4.03
2022-09-12T06:49:26.658Z,4.70
2022-09-12T06:51:53.199Z,4.00
2022-09-12T06:54:19.730Z,4.07
2022-09-12T06:56:46.255Z,4.30
2022-09-12T06:59:12.928Z,4.03
2022-09-12T07:01:41.064Z,4.22
2022-09-12T07:04:07.742Z,4.00
2022-09-12T07:06:37.757Z,4.50
2022-09-12T07:09:06.842Z,4.90
2022-09-12T07:11:34.907Z,3.95
2022-09-12T07:14:03.032Z,4.70
2022-09-12T07:16:30.404Z,4.00
2022-09-12T07:18:59.840Z,4.53
2022-09-12T07:21:27.697Z,4.30
2022-09-12T07:23:54.495Z,4.22
2022-09-12T07:26:21.264Z,4.13
2022-09-12T07:28:51.503Z,3.53
2022-09-12T07:31:19.444Z,3.97
2022-09-12T07:33:46.465Z,4.40
2022-09-12T07:36:17.804Z,5.00
2022-09-12T07:38:44.909Z,4.15
2022-09-12T07:41:12.348Z,3.90
2022-09-12T07:43:38.963Z,4.00
2022-09-12T07:46:06.071Z,3.95
2022-09-12T07:48:32.660Z,3.90
2022-09-12T07:50:59.934Z,4.60
2022-09-12T07:53:31.578Z,4.75
2022-09-12T07:55:58.138Z,4.35
2022-09-12T07:58:24.879Z,4.10
2022-09-12T08:00:51.452Z,3.78
2022-09-12T08:03:18.330Z,4.45
2022-09-12T08:05:44.848Z,4.95
2022-09-12T08:08:11.418Z,3.78
2022-09-12T08:10:39.291Z,4.25
2022-09-12T08:13:05.807Z,4.53
2022-09-12T08:15:32.362Z,4.45
2022-09-12T08:17:58.970Z,4.50
2022-09-12T08:20:28.410Z,4.50
2022-09-12T08:22:55.132Z,5.13
2022-09-12T08:25:21.671Z,5.05
2022-09-12T08:27:49.678Z,5.65
2022-09-12T08:30:16.242Z,4.93
2022-09-12T08:32:42.779Z,5.00
2022-09-12T08:35:09.638Z,5.85
2022-09-12T08:37:36.169Z,5.22
2022-09-12T08:40:03.147Z,5.35
2022-09-12T08:42:50.434Z,6.35
2022-09-12T08:45:22.946Z,5.82
2022-09-12T08:47:50.764Z,6.13
2022-09-12T08:50:20.589Z,5.20
2022-09-12T08:52:55.944Z,4.97
2022-09-12T08:55:34.953Z,4.85
2022-09-12T08:58:05.220Z,5.95
2022-09-12T09:00:41.248Z,5.25
2022-09-12T09:03:24.259Z,5.13
2022-09-12T09:05:57.964Z,5.55
2022-09-12T09:08:43.430Z,5.35
2022-09-12T09:11:26.426Z,5.15
2022-09-12T09:14:05.335Z,4.70
2022-09-12T09:16:36.504Z,5.10
2022-09-12T09:19:08.172Z,5.70
2022-09-12T09:21:41.182Z,5.95
2022-09-12T09:24:11.638Z,5.53
2022-09-12T09:26:45.088Z,5.72
2022-09-12T09:29:17.204Z,5.82
2022-09-12T09:31:48.543Z,5.78
2022-09-12T09:34:18.841Z,5.60
2022-09-12T09:36:50.384Z,5.82
2022-09-12T09:39:27.928Z,5.75
2022-09-12T09:42:09.111Z,6.43
2022-09-12T09:44:36.683Z,6.40
2022-09-12T09:47:04.823Z,6.55
2022-09-12T09:49:34.170Z,6.85
2022-09-12T09:52:01.636Z,6.68
2022-09-12T09:54:33.706Z,7.28
2022-09-12T09:57:00.230Z,7.28
2022-09-12T09:59:28.756Z,6.95
2022-09-12T10:01:57.437Z,6.95
2022-09-12T10:04:28.759Z,7.00
2022-09-12T10:06:57.674Z,7.18
2022-09-12T10:09:26.653Z,6.95
2022-09-12T10:11:54.674Z,7.80
2022-09-12T10:14:29.514Z,8.13
2022-09-12T10:16:56.283Z,7.53
2022-09-12T10:19:34.274Z,8.38
2022-09-12T10:22:01.358Z,7.63
2022-09-12T10:24:32.677Z,8.85
2022-09-12T10:27:08.739Z,8.55
2022-09-12T10:29:42.214Z,8.68
2022-09-12T10:32:09.500Z,8.10
2022-09-12T10:34:42.026Z,8.40
2022-09-12T10:37:15.471Z,8.55
2022-09-12T10:39:51.787Z,8.43
2022-09-12T10:42:33.830Z,6.63
2022-09-12T10:45:00.383Z,7.07
2022-09-12T10:47:31.078Z,7.03
2022-09-12T10:50:22.804Z,7.78
2022-09-12T10:55:16.264Z,7.20
2022-09-12T10:57:57.546Z,6.65
2022-09-12T11:00:24.154Z,5.82
2022-09-12T11:02:57.370Z,5.82
2022-09-12T11:05:47.908Z,5.80
2022-09-12T11:08:26.934Z,5.50
2022-09-12T11:10:57.695Z,5.13
2022-09-12T11:13:38.954Z,4.50
2022-09-12T11:16:16.793Z,4.15
2022-09-12T11:19:07.230Z,4.32
2022-09-12T11:21:57.864Z,3.85
2022-09-12T11:24:37.872Z,4.35
2022-09-12T11:27:19.370Z,4.00
2022-09-12T11:29:49.670Z,4.22
2022-09-12T11:32:42.446Z,4.05
2022-09-12T11:35:18.479Z,3.70
2022-09-12T11:38:31.418Z,3.70
2022-09-12T11:41:02.065Z,3.40
2022-09-12T11:43:37.595Z,3.50
2022-09-12T11:46:12.598Z,3.40
2022-09-12T11:48:45.200Z,3.60
2022-09-12T11:51:18.776Z,4.30
2022-09-12T11:53:56.650Z,3.70
2022-09-12T11:56:23.599Z,3.60
2022-09-12T11:58:58.669Z,3.38
2022-09-12T12:01:31.608Z,3.38
2022-09-12T12:04:05.840Z,3.63
2022-09-12T12:06:36.804Z,3.20
2022-09-12T12:09:05.535Z,3.30
2022-09-12T12:11:35.496Z,3.13
2022-09-12T12:14:06.348Z,3.05
2022-09-12T12:16:34.946Z,2.90
2022-09-12T12:19:06.491Z,2.85
2022-09-12T12:21:40.237Z,3.25
2022-09-12T12:24:17.632Z,2.70
2022-09-12T12:26:59.296Z,3.17
2022-09-12T12:29:44.304Z,2.58
2022-09-12T12:32:26.692Z,2.70
2022-09-12T12:35:29.595Z,3.38
2022-09-12T12:37:57.194Z,2.15
2022-09-12T12:40:27.210Z,2.60
2022-09-12T12:43:30.574Z,2.97
2022-09-12T12:46:09.216Z,2.70
2022-09-12T12:48:55.986Z,2.70
2022-09-12T12:51:32.922Z,2.38
2022-09-12T12:54:00.736Z,2.67
2022-09-12T12:56:40.001Z,2.40
2022-09-12T12:59:19.298Z,3.08
2022-09-12T13:01:54.796Z,2.40
2022-09-12T13:04:25.086Z,2.40
2022-09-12T13:06:59.546Z,2.63
2022-09-12T13:09:32.571Z,2.70
2022-09-12T13:12:05.115Z,2.60
2022-09-12T13:14:48.362Z,2.47
2022-09-12T13:17:20.099Z,2.60
2022-09-12T13:22:13.777Z,2.60
2022-09-12T13:24:42.730Z,2.40
2022-09-12T13:27:19.229Z,2.70
2022-09-12T13:29:45.943Z,2.70
2022-09-12T13:32:12.656Z,2.90
2022-09-12T13:34:55.593Z,2.47
2022-09-12T13:37:38.368Z,2.55
2022-09-12T13:40:22.490Z,2.50
2022-09-12T13:43:05.058Z,2.72
2022-09-12T13:45:36.347Z,2.92
2022-09-12T13:48:04.482Z,2.92
2022-09-12T13:50:36.712Z,2.63
2022-09-12T13:53:07.056Z,2.80
2022-09-12T13:55:35.943Z,2.58
2022-09-12T13:58:05.471Z,3.13
2022-09-12T14:00:33.720Z,2.97
2022-09-12T14:03:00.806Z,3.03
2022-09-12T14:05:27.406Z,2.72
2022-09-12T14:07:57.971Z,2.50
2022-09-12T14:10:29.837Z,3.00
2022-09-12T14:12:58.008Z,3.13
2022-09-12T14:15:28.955Z,3.25
2022-09-12T14:17:57.565Z,3.03
2022-09-12T14:20:24.281Z,2.80
2022-09-12T14:22:52.223Z,3.10
2022-09-12T14:25:21.568Z,3.53
2022-09-12T14:27:51.688Z,3.40
2022-09-12T14:30:24.911Z,2.78
2022-09-12T14:33:19.813Z,3.33
2022-09-12T14:35:47.734Z,2.90
2022-09-12T14:38:25.723Z,3.13
2022-09-12T14:40:58.990Z,2.72
2022-09-12T14:43:28.309Z,3.08
2022-09-12T14:45:58.383Z,3.20
2022-09-12T14:48:29.186Z,2.67
2022-09-12T14:50:55.881Z,2.60
2022-09-12T14:53:30.503Z,2.80
2022-09-12T14:56:03.086Z,3.00
2022-09-12T14:58:29.601Z,3.10
2022-09-12T15:00:59.418Z,3.08
2022-09-12T15:03:38.193Z,3.47
2022-09-12T15:06:05.761Z,2.97
2022-09-12T15:08:32.467Z,3.10
2022-09-12T15:11:00.211Z,3.03
2022-09-12T15:13:27.915Z,3.30
2022-09-12T15:15:55.728Z,3.17
2022-09-12T15:18:24.423Z,2.85
2022-09-12T15:20:55.388Z,2.92
2022-09-12T15:23:30.639Z,3.05
2022-09-12T15:25:57.196Z,3.35
2022-09-12T15:28:25.148Z,3.25
2022-09-12T15:30:54.848Z,3.28
2022-09-12T15:33:23.363Z,3.00
2022-09-12T15:35:50.280Z,3.42
2022-09-12T15:38:20.230Z,3.03
2022-09-12T15:40:50.491Z,3.15
2022-09-12T15:43:17.018Z,3.30
2022-09-12T15:45:44.121Z,2.97
2022-09-12T15:48:10.652Z,3.20
2022-09-12T15:50:37.220Z,3.38
2022-09-12T15:53:03.764Z,2.83
2022-09-12T15:55:32.339Z,3.08
2022-09-12T15:58:02.446Z,2.72
2022-09-12T16:00:31.512Z,3.00
2022-09-12T16:02:58.066Z,2.67
2022-09-12T16:05:26.463Z,2.97
2022-09-12T16:07:54.877Z,2.97
2022-09-12T16:10:23.191Z,3.30
2022-09-12T16:12:51.094Z,3.55
2022-09-12T16:15:20.008Z,3.10
2022-09-12T16:17:46.950Z,3.30
2022-09-12T16:20:13.668Z,3.40
2022-09-12T16:22:40.778Z,3.25
2022-09-12T16:25:08.118Z,3.40
2022-09-12T16:27:35.767Z,2.90
2022-09-12T16:30:04.656Z,3.47
2022-09-12T16:32:31.198Z,3.30
2022-09-12T16:34:57.779Z,2.95
2022-09-12T16:37:24.355Z,2.95
2022-09-12T16:39:50.923Z,3.50
2022-09-12T16:42:17.548Z,3.10
2022-09-12T16:44:44.048Z,3.10
2022-09-12T16:47:12.276Z,3.20
2022-09-12T16:49:38.826Z,3.50
2022-09-12T16:52:05.498Z,3.42
2022-09-12T16:54:32.127Z,3.13
2022-09-12T16:56:58.645Z,3.28
2022-09-12T16:59:25.196Z,3.33
2022-09-12T17:01:51.851Z,3.20
2022-09-12T17:04:23.450Z,3.40
2022-09-12T17:06:50.428Z,3.00
2022-09-12T17:09:16.954Z,3.33
2022-09-12T17:11:43.479Z,3.45
2022-09-12T17:14:10.917Z,3.00
2022-09-12T17:16:39.840Z,4.60
2022-09-12T17:19:07.062Z,3.28
2022-09-12T17:21:35.260Z,3.70
2022-09-12T17:24:03.459Z,3.90
2022-09-12T17:26:30.003Z,3.80
2022-09-12T17:28:56.548Z,3.60
2022-09-12T17:31:23.373Z,3.20
2022-09-12T17:33:49.982Z,3.08
2022-09-12T17:36:17.845Z,3.38
2022-09-12T17:38:46.212Z,3.58
2022-09-12T17:41:14.959Z,3.35
2022-09-12T17:43:41.765Z,3.53
2022-09-12T17:46:08.575Z,3.45
2022-09-12T17:48:35.539Z,3.55
2022-09-12T17:51:07.036Z,3.65
2022-09-12T17:53:33.756Z,3.67
2022-09-12T17:56:02.846Z,3.65
2022-09-12T17:58:29.373Z,3.70
2022-09-12T18:01:00.739Z,3.60
2022-09-12T18:03:27.294Z,4.18
2022-09-12T18:05:55.617Z,3.83
2022-09-12T18:08:23.274Z,4.32
2022-09-12T18:10:51.034Z,4.07
2022-09-12T18:13:19.061Z,3.78
2022-09-12T18:15:45.640Z,3.45
2022-09-12T18:18:12.203Z,4.10
2022-09-12T18:20:38.724Z,4.05
2022-09-12T18:23:05.283Z,3.60
2022-09-12T18:25:31.787Z,4.70
2022-09-12T18:27:58.306Z,4.10
2022-09-12T18:30:26.276Z,4.20
2022-09-12T18:32:52.835Z,3.67
2022-09-12T18:35:19.343Z,5.47
2022-09-12T18:37:45.863Z,4.30
2022-09-12T18:40:12.440Z,3.97
2022-09-12T18:42:39.003Z,4.15
2022-09-12T18:45:06.911Z,4.00
2022-09-12T18:47:35.871Z,4.03
2022-09-12T18:50:02.393Z,4.03
2022-09-12T18:52:28.915Z,4.15
2022-09-12T18:54:55.510Z,4.13
2022-09-12T18:57:22.023Z,4.30
2022-09-12T18:59:48.649Z,4.47
2022-09-12T19:02:16.328Z,4.57
2022-09-12T19:04:44.347Z,4.43
2022-09-12T19:07:10.931Z,4.55
2022-09-12T19:09:37.444Z,3.88
2022-09-12T19:12:04.320Z,4.40
2022-09-12T19:14:30.899Z,4.82
2022-09-12T19:16:57.555Z,4.03
2022-09-12T19:19:24.083Z,4.75
2022-09-12T19:21:51.951Z,4.22
2022-09-12T19:24:18.529Z,4.57
2022-09-12T19:26:45.123Z,5.13
2022-09-12T19:29:12.093Z,4.70
2022-09-12T19:31:38.663Z,4.88
2022-09-12T19:34:07.358Z,4.88
2022-09-12T19:36:44.927Z,4.40
2022-09-12T19:39:15.079Z,3.88
2022-09-12T19:41:41.617Z,4.25
2022-09-12T19:44:08.318Z,4.20
2022-09-12T19:46:34.958Z,4.20
2022-09-12T19:49:01.556Z,4.25
2022-09-12T19:51:28.257Z,4.80
2022-09-12T19:53:54.948Z,4.40
2022-09-12T19:56:23.089Z,4.50
2022-09-12T19:58:55.017Z,5.40
2022-09-12T20:01:24.589Z,4.32
2022-09-12T20:03:51.265Z,4.22
2022-09-12T20:06:18.199Z,4.28
2022-09-12T20:08:45.144Z,4.72
2022-09-12T20:11:13.261Z,4.57
2022-09-12T20:13:41.782Z,4.00
2022-09-12T20:16:09.876Z,4.47
2022-09-12T20:18:36.975Z,4.47
2022-09-12T20:21:11.771Z,4.30
2022-09-12T20:23:38.435Z,4.22
2022-09-12T20:26:05.271Z,4.35
2022-09-12T20:28:31.837Z,5.03
2022-09-12T20:31:02.819Z,4.22
2022-09-12T20:33:30.315Z,4.20
2022-09-12T20:36:04.701Z,4.15
2022-09-12T20:38:31.342Z,4.55
2022-09-12T20:40:58.000Z,4.70
2022-09-12T20:43:24.523Z,4.35
2022-09-12T20:45:51.034Z,4.80
2022-09-12T20:48:18.971Z,4.25
2022-09-12T20:50:45.513Z,4.10
2022-09-12T20:53:12.130Z,4.30
2022-09-12T20:55:38.828Z,4.00
2022-09-12T20:58:05.399Z,4.22
2022-09-12T21:00:31.941Z,4.43
2022-09-12T21:02:58.541Z,4.28
2022-09-12T21:05:26.445Z,4.03
2022-09-12T21:07:52.962Z,4.40
2022-09-12T21:10:19.469Z,4.00
2022-09-12T21:12:46.023Z,4.38
2022-09-12T21:15:12.570Z,4.22
2022-09-12T21:17:39.091Z,3.70
2022-09-12T21:20:11.139Z,4.13
2022-09-12T21:22:39.344Z,3.75
2022-09-12T21:25:06.308Z,4.43
2022-09-12T21:27:32.860Z,4.05
2022-09-12T21:29:59.445Z,4.63
2022-09-12T21:32:25.997Z,4.90
2022-09-12T21:34:52.528Z,4.68
2022-09-12T21:37:19.069Z,4.18
2022-09-12T21:39:46.968Z,4.38
2022-09-12T21:42:13.535Z,3.90
2022-09-12T21:44:40.065Z,4.00
2022-09-12T21:47:06.724Z,3.70
2022-09-12T21:49:33.269Z,4.05
2022-09-12T21:51:59.849Z,3.63
2022-09-12T21:54:26.351Z,3.95
2022-09-12T21:56:54.237Z,3.70
2022-09-12T21:59:20.922Z,4.05
2022-09-12T22:01:47.579Z,3.53
2022-09-12T22:04:14.163Z,4.22
2022-09-12T22:06:40.687Z,3.72
2022-09-12T22:09:07.197Z,3.85
2022-09-12T22:11:33.730Z,3.80
2022-09-12T22:14:01.607Z,4.05
2022-09-12T22:16:28.146Z,3.97
2022-09-12T22:18:54.695Z,4.00
2022-09-12T22:21:22.417Z,4.05
2022-09-12T22:23:48.924Z,3.83
2022-09-12T22:26:15.682Z,3.92
2022-09-12T22:28:42.727Z,4.72
2022-09-12T22:31:12.014Z,3.95
2022-09-12T22:33:39.259Z,4.30
2022-09-12T22:36:06.035Z,4.35
2022-09-12T22:38:32.777Z,4.13
2022-09-12T22:41:06.206Z,4.22
2022-09-12T22:43:33.208Z,3.80
2022-09-12T22:45:59.744Z,3.85
2022-09-12T22:48:27.659Z,4.20
2022-09-12T22:50:54.224Z,3.58
2022-09-12T22:53:20.793Z,4.45
2022-09-12T22:55:47.344Z,4.10
2022-09-12T22:58:13.874Z,4.45
2022-09-12T23:00:45.210Z,4.20
2022-09-12T23:03:11.840Z,4.20
2022-09-12T23:05:39.751Z,3.80
2022-09-12T23:08:06.305Z,5.55
2022-09-12T23:10:35.207Z,4.35
2022-09-12T23:13:01.733Z,4.03
2022-09-12T23:15:28.257Z,4.95
2022-09-12T23:17:54.811Z,3.85
2022-09-12T23:20:21.341Z,4.50
2022-09-12T23:22:49.220Z,3.90
2022-09-12T23:25:15.990Z,4.10
2022-09-12T23:27:42.529Z,3.92
2022-09-12T23:30:10.105Z,4.05
2022-09-12T23:32:36.809Z,4.00
2022-09-12T23:35:04.005Z,4.38
2022-09-12T23:37:30.545Z,3.78
2022-09-12T23:39:58.448Z,4.20
2022-09-12T23:42:24.973Z,4.00
2022-09-12T23:44:51.474Z,3.95
2022-09-12T23:47:17.979Z,3.75
2022-09-12T23:49:44.500Z,3.67
2022-09-12T23:52:11.342Z,4.35
2022-09-12T23:54:37.843Z,3.90
2022-09-12T23:57:05.801Z,4.07
2022-09-12T23:59:32.347Z,4.03
